createdAt,value
2022-12-27T00:00:53.219Z,1014.11
2022-12-27T00:01:53.187Z,1014.17
2022-12-27T00:02:53.149Z,1014.14
2022-12-27T00:03:53.134Z,1014.09
2022-12-27T00:04:53.102Z,1014.07
2022-12-27T00:05:53.113Z,1014.12
2022-12-27T00:06:53.108Z,1014.07
2022-12-27T00:07:53.099Z,1014.04
2022-12-27T00:08:53.057Z,1014.08
2022-12-27T00:09:53.071Z,1014.05
2022-12-27T00:10:53.071Z,1014.03
2022-12-27T00:11:58.083Z,1014.11
2022-12-27T00:12:53.047Z,1014.03
2022-12-27T00:13:53.035Z,1014.13
2022-12-27T00:14:52.998Z,1014.11
2022-12-27T00:15:53.005Z,1014.09
2022-12-27T00:16:53.014Z,1014.08
2022-12-27T00:17:52.991Z,1014.09
2022-12-27T00:18:53.003Z,1014.11
2022-12-27T00:19:52.995Z,1014.08
2022-12-27T00:20:52.936Z,1014.04
2022-12-27T00:21:52.976Z,1014.10
2022-12-27T00:22:52.913Z,1014.06
2022-12-27T00:23:52.931Z,1014.12
2022-12-27T00:24:52.927Z,1014.09
2022-12-27T00:25:52.904Z,1014.08
2022-12-27T00:26:52.891Z,1014.07
2022-12-27T00:27:52.887Z,1014.06
2022-12-27T00:28:52.855Z,1014.08
2022-12-27T00:29:52.875Z,1014.06
2022-12-27T00:30:52.847Z,1014.06
2022-12-27T00:31:52.913Z,1014.05
2022-12-27T00:32:52.808Z,1014.06
2022-12-27T00:33:52.834Z,1014.02
2022-12-27T00:34:52.811Z,1014.03
2022-12-27T00:35:52.800Z,1014.05
2022-12-27T00:36:52.788Z,1014.08
2022-12-27T00:37:52.794Z,1014.08
2022-12-27T00:38:52.747Z,1014.06
2022-12-27T00:39:52.776Z,1014.10
2022-12-27T00:40:52.734Z,1014.09
2022-12-27T00:41:52.741Z,1014.12
2022-12-27T00:42:52.736Z,1014.15
2022-12-27T00:43:52.718Z,1014.16
2022-12-27T00:44:52.695Z,1014.15
2022-12-27T00:45:52.721Z,1014.17
2022-12-27T00:46:52.673Z,1014.20
2022-12-27T00:47:52.681Z,1014.18
2022-12-27T00:48:52.676Z,1014.21
2022-12-27T00:49:52.657Z,1014.18
2022-12-27T00:50:52.625Z,1014.17
2022-12-27T00:51:52.647Z,1014.18
2022-12-27T00:52:52.603Z,1014.18
2022-12-27T00:53:52.628Z,1014.14
2022-12-27T00:54:52.607Z,1014.17
2022-12-27T00:55:52.598Z,1014.26
2022-12-27T00:56:52.565Z,1014.22
2022-12-27T00:57:52.583Z,1014.23
2022-12-27T00:58:52.548Z,1014.34
2022-12-27T00:59:52.559Z,1014.31
2022-12-27T01:00:52.575Z,1014.30
2022-12-27T01:01:52.740Z,1014.29
2022-12-27T01:02:52.515Z,1014.32
2022-12-27T01:03:52.576Z,1014.32
2022-12-27T01:04:52.500Z,1014.29
2022-12-27T01:05:52.493Z,1014.26
2022-12-27T01:06:52.481Z,1014.27
2022-12-27T01:07:52.472Z,1014.26
2022-12-27T01:08:52.442Z,1014.29
2022-12-27T01:09:52.451Z,1014.29
2022-12-27T01:10:52.450Z,1014.31
2022-12-27T01:11:52.429Z,1014.25
2022-12-27T01:12:52.461Z,1014.26
2022-12-27T01:13:52.406Z,1014.26
2022-12-27T01:14:52.389Z,1014.27
2022-12-27T01:15:52.391Z,1014.27
2022-12-27T01:16:52.402Z,1014.25
2022-12-27T01:17:52.379Z,1014.24
2022-12-27T01:18:52.378Z,1014.25
2022-12-27T01:19:52.353Z,1014.28
2022-12-27T01:20:52.314Z,1014.29
2022-12-27T01:21:52.324Z,1014.29
2022-12-27T01:22:52.316Z,1014.29
2022-12-27T01:23:52.314Z,1014.29
2022-12-27T01:24:52.308Z,1014.34
2022-12-27T01:25:52.288Z,1014.32
2022-12-27T01:26:52.263Z,1014.38
2022-12-27T01:27:52.265Z,1014.32
2022-12-27T01:28:52.249Z,1014.30
2022-12-27T01:29:52.249Z,1014.28
2022-12-27T01:30:52.236Z,1014.34
2022-12-27T01:31:52.280Z,1014.33
2022-12-27T01:32:52.193Z,1014.32
2022-12-27T01:33:52.324Z,1014.38
2022-12-27T01:34:52.182Z,1014.37
2022-12-27T01:35:52.180Z,1014.38
2022-12-27T01:36:52.177Z,1014.37
2022-12-27T01:37:52.171Z,1014.40
2022-12-27T01:38:52.125Z,1014.39
2022-12-27T01:39:52.149Z,1014.36
2022-12-27T01:40:52.107Z,1014.38
2022-12-27T01:41:52.132Z,1014.35
2022-12-27T01:42:52.132Z,1014.38
2022-12-27T01:43:52.103Z,1014.38
2022-12-27T01:44:52.074Z,1014.41
2022-12-27T01:45:52.109Z,1014.39
2022-12-27T01:46:52.048Z,1014.40
2022-12-27T01:47:52.065Z,1014.40
2022-12-27T01:48:52.062Z,1014.44
2022-12-27T01:49:52.037Z,1014.43
2022-12-27T01:50:52.014Z,1014.42
2022-12-27T01:51:52.022Z,1014.48
2022-12-27T01:52:52.009Z,1014.50
2022-12-27T01:53:52.003Z,1014.48
2022-12-27T01:54:51.979Z,1014.54
2022-12-27T01:55:51.981Z,1014.55
2022-12-27T01:56:51.947Z,1014.58
2022-12-27T01:57:51.952Z,1014.60
2022-12-27T01:58:51.920Z,1014.59
2022-12-27T01:59:51.907Z,1014.60
2022-12-27T02:00:51.984Z,1014.60
2022-12-27T02:01:52.020Z,1014.63
2022-12-27T02:02:52.042Z,1014.62
2022-12-27T02:03:51.900Z,1014.63
2022-12-27T02:04:51.883Z,1014.62
2022-12-27T02:05:51.866Z,1014.63
2022-12-27T02:06:51.883Z,1014.61
2022-12-27T02:07:51.854Z,1014.64
2022-12-27T02:08:51.929Z,1014.64
2022-12-27T02:09:51.841Z,1014.66
2022-12-27T02:10:51.823Z,1014.65
2022-12-27T02:11:51.807Z,1014.65
2022-12-27T02:12:51.832Z,1014.65
2022-12-27T02:13:51.773Z,1014.64
2022-12-27T02:14:51.781Z,1014.64
2022-12-27T02:15:51.767Z,1014.64
2022-12-27T02:16:51.781Z,1014.68
2022-12-27T02:17:51.722Z,1014.63
2022-12-27T02:18:51.755Z,1014.63
2022-12-27T02:19:51.706Z,1014.65
2022-12-27T02:20:51.731Z,1014.63
2022-12-27T02:21:51.682Z,1014.65
2022-12-27T02:22:51.714Z,1014.67
2022-12-27T02:23:51.665Z,1014.67
2022-12-27T02:24:51.724Z,1014.67
2022-12-27T02:25:51.638Z,1014.67
2022-12-27T02:26:51.661Z,1014.69
2022-12-27T02:27:51.621Z,1014.61
2022-12-27T02:28:51.640Z,1014.69
2022-12-27T02:29:51.604Z,1014.66
2022-12-27T02:30:51.663Z,1014.75
2022-12-27T02:31:51.616Z,1014.63
2022-12-27T02:32:51.593Z,1014.68
2022-12-27T02:33:51.561Z,1014.69
2022-12-27T02:34:51.569Z,1014.68
2022-12-27T02:35:51.537Z,1014.74
2022-12-27T02:36:51.575Z,1014.73
2022-12-27T02:37:51.519Z,1014.71
2022-12-27T02:38:51.536Z,1014.75
2022-12-27T02:39:51.500Z,1014.76
2022-12-27T02:40:51.510Z,1014.76
2022-12-27T02:41:51.481Z,1014.77
2022-12-27T02:42:51.515Z,1014.76
2022-12-27T02:43:51.451Z,1014.74
2022-12-27T02:44:51.490Z,1014.73
2022-12-27T02:45:51.466Z,1014.77
2022-12-27T02:46:51.446Z,1014.74
2022-12-27T02:47:51.411Z,1014.82
2022-12-27T02:48:51.446Z,1014.79
2022-12-27T02:49:51.411Z,1014.77
2022-12-27T02:50:51.404Z,1014.79
2022-12-27T02:51:51.392Z,1014.80
2022-12-27T02:52:51.393Z,1014.77
2022-12-27T02:53:51.365Z,1014.86
2022-12-27T02:54:51.382Z,1014.81
2022-12-27T02:55:51.330Z,1014.77
2022-12-27T02:56:51.345Z,1014.74
2022-12-27T02:57:51.311Z,1014.72
2022-12-27T02:58:51.327Z,1014.69
2022-12-27T02:59:51.288Z,1014.65
2022-12-27T03:00:51.322Z,1014.64
2022-12-27T03:01:51.321Z,1014.64
2022-12-27T03:02:51.295Z,1014.61
2022-12-27T03:03:51.265Z,1014.64
2022-12-27T03:04:51.258Z,1014.61
2022-12-27T03:05:51.235Z,1014.63
2022-12-27T03:06:51.256Z,1014.64
2022-12-27T03:07:51.213Z,1014.65
2022-12-27T03:08:51.225Z,1014.63
2022-12-27T03:09:51.189Z,1014.62
2022-12-27T03:10:51.197Z,1014.66
2022-12-27T03:11:51.165Z,1014.79
2022-12-27T03:12:51.212Z,1014.77
2022-12-27T03:13:51.157Z,1014.79
2022-12-27T03:14:51.165Z,1014.73
2022-12-27T03:15:51.164Z,1014.70
2022-12-27T03:16:51.151Z,1014.72
2022-12-27T03:17:51.105Z,1014.72
2022-12-27T03:18:51.149Z,1014.73
2022-12-27T03:19:51.085Z,1014.73
2022-12-27T03:20:51.105Z,1014.72
2022-12-27T03:21:51.066Z,1014.70
2022-12-27T03:22:51.095Z,1014.74
2022-12-27T03:23:51.041Z,1014.77
2022-12-27T03:24:51.104Z,1014.78
2022-12-27T03:25:51.023Z,1014.82
2022-12-27T03:26:51.036Z,1014.84
2022-12-27T03:27:51.005Z,1014.87
2022-12-27T03:28:51.022Z,1014.86
2022-12-27T03:29:51.010Z,1014.86
2022-12-27T03:30:51.070Z,1014.87
2022-12-27T03:31:50.970Z,1014.82
2022-12-27T03:32:50.979Z,1014.89
2022-12-27T03:33:50.938Z,1014.87
2022-12-27T03:34:50.950Z,1014.99
2022-12-27T03:35:50.944Z,1014.92
2022-12-27T03:36:50.949Z,1014.93
2022-12-27T03:37:50.915Z,1014.93
2022-12-27T03:38:50.933Z,1014.96
2022-12-27T03:39:50.879Z,1014.96
2022-12-27T03:40:50.887Z,1015.00
2022-12-27T03:41:50.857Z,1014.98
2022-12-27T03:42:50.890Z,1014.95
2022-12-27T03:43:50.836Z,1014.99
2022-12-27T03:44:50.860Z,1014.99
2022-12-27T03:45:50.809Z,1014.96
2022-12-27T03:46:50.834Z,1014.95
2022-12-27T03:47:50.793Z,1015.01
2022-12-27T03:48:50.839Z,1015.01
2022-12-27T03:49:50.772Z,1014.97
2022-12-27T03:50:50.799Z,1014.98
2022-12-27T03:51:50.753Z,1014.96
2022-12-27T03:52:50.765Z,1015.01
2022-12-27T03:53:50.729Z,1015.04
2022-12-27T03:54:50.757Z,1015.06
2022-12-27T03:55:50.708Z,1015.06
2022-12-27T03:56:50.728Z,1015.04
2022-12-27T03:57:50.686Z,1015.03
2022-12-27T03:58:50.703Z,1015.04
2022-12-27T03:59:50.673Z,1015.10
2022-12-27T04:00:50.718Z,1015.07
2022-12-27T04:01:50.732Z,1015.08
2022-12-27T04:02:50.971Z,1015.14
2022-12-27T04:03:50.629Z,1015.08
2022-12-27T04:04:50.640Z,1015.11
2022-12-27T04:05:50.613Z,1015.14
2022-12-27T04:06:50.678Z,1015.13
2022-12-27T04:07:50.599Z,1015.11
2022-12-27T04:08:50.602Z,1015.18
2022-12-27T04:09:50.570Z,1015.19
2022-12-27T04:10:50.606Z,1015.22
2022-12-27T04:11:50.545Z,1015.21
2022-12-27T04:12:50.575Z,1015.24
2022-12-27T04:13:50.543Z,1015.21
2022-12-27T04:14:50.553Z,1015.22
2022-12-27T04:15:50.540Z,1015.26
2022-12-27T04:16:50.519Z,1015.27
2022-12-27T04:17:50.481Z,1015.19
2022-12-27T04:18:50.517Z,1015.19
2022-12-27T04:19:50.501Z,1015.22
2022-12-27T04:20:50.477Z,1015.24
2022-12-27T04:21:50.456Z,1015.25
2022-12-27T04:22:50.468Z,1015.22
2022-12-27T04:23:50.419Z,1015.20
2022-12-27T04:24:50.459Z,1015.17
2022-12-27T04:25:50.421Z,1015.19
2022-12-27T04:26:50.415Z,1015.22
2022-12-27T04:27:50.393Z,1015.22
2022-12-27T04:28:50.390Z,1015.16
2022-12-27T04:29:50.350Z,1015.23
2022-12-27T04:30:50.456Z,1015.19
2022-12-27T04:31:50.342Z,1015.24
2022-12-27T04:32:50.355Z,1015.23
2022-12-27T04:33:50.340Z,1015.23
2022-12-27T04:34:50.330Z,1015.23
2022-12-27T04:35:50.298Z,1015.19
2022-12-27T04:36:50.344Z,1015.22
2022-12-27T04:37:50.329Z,1015.23
2022-12-27T04:38:50.290Z,1015.29
2022-12-27T04:39:50.302Z,1015.25
2022-12-27T04:40:50.286Z,1015.24
2022-12-27T04:41:50.280Z,1015.24
2022-12-27T04:42:50.265Z,1015.27
2022-12-27T04:43:50.258Z,1015.24
2022-12-27T04:44:50.225Z,1015.27
2022-12-27T04:45:50.254Z,1015.19
2022-12-27T04:46:50.284Z,1015.29
2022-12-27T04:47:50.228Z,1015.27
2022-12-27T04:48:50.211Z,1015.27
2022-12-27T04:49:50.198Z,1015.24
2022-12-27T04:50:50.173Z,1015.23
2022-12-27T04:51:50.179Z,1015.25
2022-12-27T04:52:50.145Z,1015.26
2022-12-27T04:53:50.160Z,1015.25
2022-12-27T04:54:50.141Z,1015.25
2022-12-27T04:55:50.145Z,1015.26
2022-12-27T04:56:50.146Z,1015.24
2022-12-27T04:57:50.126Z,1015.26
2022-12-27T04:58:50.106Z,1015.27
2022-12-27T04:59:50.098Z,1015.28
2022-12-27T05:00:50.076Z,1015.25
2022-12-27T05:01:50.179Z,1015.26
2022-12-27T05:02:50.315Z,1015.28
2022-12-27T05:03:50.238Z,1015.31
2022-12-27T05:04:50.036Z,1015.33
2022-12-27T05:05:50.052Z,1015.33
2022-12-27T05:06:50.016Z,1015.33
2022-12-27T05:07:50.019Z,1015.35
2022-12-27T05:08:49.987Z,1015.35
2022-12-27T05:09:50.039Z,1015.34
2022-12-27T05:10:49.954Z,1015.35
2022-12-27T05:11:49.974Z,1015.36
2022-12-27T05:12:49.935Z,1015.35
2022-12-27T05:13:49.951Z,1015.36
2022-12-27T05:14:49.914Z,1015.38
2022-12-27T05:15:50.098Z,1015.38
2022-12-27T05:16:49.900Z,1015.38
2022-12-27T05:17:49.910Z,1015.46
2022-12-27T05:18:49.883Z,1015.44
2022-12-27T05:19:49.888Z,1015.51
2022-12-27T05:20:49.869Z,1015.50
2022-12-27T05:21:49.877Z,1015.47
2022-12-27T05:22:49.843Z,1015.53
2022-12-27T05:23:49.845Z,1015.43
2022-12-27T05:24:49.823Z,1015.49
2022-12-27T05:25:49.842Z,1015.43
2022-12-27T05:26:49.797Z,1015.49
2022-12-27T05:27:49.802Z,1015.45
2022-12-27T05:28:49.785Z,1015.48
2022-12-27T05:29:49.805Z,1015.50
2022-12-27T05:30:49.763Z,1015.50
2022-12-27T05:31:49.808Z,1015.50
2022-12-27T05:32:49.737Z,1015.48
2022-12-27T05:33:49.735Z,1015.53
2022-12-27T05:34:49.706Z,1015.49
2022-12-27T05:35:49.776Z,1015.54
2022-12-27T05:36:49.687Z,1015.55
2022-12-27T05:37:54.766Z,1015.54
2022-12-27T05:38:49.716Z,1015.54
2022-12-27T05:39:49.724Z,1015.53
2022-12-27T05:40:49.650Z,1015.54
2022-12-27T05:41:49.670Z,1015.54
2022-12-27T05:42:49.620Z,1015.53
2022-12-27T05:43:49.651Z,1015.62
2022-12-27T05:44:49.601Z,1015.67
2022-12-27T05:45:49.628Z,1015.66
2022-12-27T05:46:49.679Z,1015.69
2022-12-27T05:47:49.590Z,1015.66
2022-12-27T05:48:49.571Z,1015.67
2022-12-27T05:49:49.592Z,1015.72
2022-12-27T05:50:49.541Z,1015.72
2022-12-27T05:51:49.569Z,1015.73
2022-12-27T05:52:49.521Z,1015.86
2022-12-27T05:53:49.533Z,1015.69
2022-12-27T05:54:49.509Z,1015.66
2022-12-27T05:55:49.545Z,1015.67
2022-12-27T05:56:49.503Z,1015.65
2022-12-27T05:57:49.496Z,1015.66
2022-12-27T05:58:49.463Z,1015.73
2022-12-27T05:59:49.467Z,1015.70
2022-12-27T06:00:49.462Z,1015.68
2022-12-27T06:01:49.634Z,1015.77
2022-12-27T06:02:49.527Z,1015.77
2022-12-27T06:03:49.432Z,1015.75
2022-12-27T06:04:49.404Z,1015.78
2022-12-27T06:05:49.408Z,1015.79
2022-12-27T06:06:49.375Z,1015.81
2022-12-27T06:07:49.410Z,1015.80
2022-12-27T06:08:49.353Z,1015.81
2022-12-27T06:09:49.372Z,1015.81
2022-12-27T06:10:49.344Z,1015.80
2022-12-27T06:11:49.348Z,1015.83
2022-12-27T06:12:49.344Z,1015.80
2022-12-27T06:13:49.325Z,1015.80
2022-12-27T06:14:49.321Z,1015.80
2022-12-27T06:15:49.280Z,1015.81
2022-12-27T06:16:49.364Z,1015.85
2022-12-27T06:17:49.287Z,1015.83
2022-12-27T06:18:49.289Z,1015.85
2022-12-27T06:19:53.814Z,1015.85
2022-12-27T06:20:49.253Z,1015.86
2022-12-27T06:21:49.242Z,1015.89
2022-12-27T06:22:49.230Z,1015.99
2022-12-27T06:23:49.230Z,1015.96
2022-12-27T06:24:49.215Z,1015.98
2022-12-27T06:25:49.179Z,1015.99
2022-12-27T06:26:49.205Z,1016.05
2022-12-27T06:27:49.155Z,1016.07
2022-12-27T06:28:49.262Z,1016.01
2022-12-27T06:29:49.141Z,1016.06
2022-12-27T06:30:49.164Z,1015.99
2022-12-27T06:31:49.167Z,1016.09
2022-12-27T06:32:49.144Z,1016.08
2022-12-27T06:33:49.143Z,1016.12
2022-12-27T06:34:49.107Z,1016.15
2022-12-27T06:35:49.073Z,1016.12
2022-12-27T06:36:49.089Z,1016.25
2022-12-27T06:37:49.055Z,1016.15
2022-12-27T06:38:49.182Z,1016.16
2022-12-27T06:39:49.030Z,1016.15
2022-12-27T06:40:49.051Z,1016.11
2022-12-27T06:41:49.022Z,1016.15
2022-12-27T06:42:49.022Z,1016.15
2022-12-27T06:43:48.992Z,1016.15
2022-12-27T06:44:49.220Z,1016.17
2022-12-27T06:45:49.029Z,1016.24
2022-12-27T06:46:48.994Z,1016.27
2022-12-27T06:47:48.965Z,1016.19
2022-12-27T06:48:49.016Z,1016.18
2022-12-27T06:49:48.965Z,1016.16
2022-12-27T06:50:48.985Z,1016.17
2022-12-27T06:51:52.732Z,1016.19
2022-12-27T06:52:48.942Z,1016.21
2022-12-27T06:53:48.906Z,1016.23
2022-12-27T06:54:48.916Z,1016.23
2022-12-27T06:55:48.880Z,1016.29
2022-12-27T06:56:48.878Z,1016.28
2022-12-27T06:57:48.877Z,1016.31
2022-12-27T06:58:48.871Z,1016.32
2022-12-27T06:59:53.860Z,1016.32
2022-12-27T07:00:48.898Z,1016.50
2022-12-27T07:01:48.944Z,1016.34
2022-12-27T07:02:48.932Z,1016.37
2022-12-27T07:03:48.786Z,1016.32
2022-12-27T07:04:48.828Z,1016.39
2022-12-27T07:05:48.761Z,1016.40
2022-12-27T07:06:48.775Z,1016.44
2022-12-27T07:07:48.745Z,1016.41
2022-12-27T07:08:48.756Z,1016.45
2022-12-27T07:09:48.723Z,1016.44
2022-12-27T07:10:48.747Z,1016.41
2022-12-27T07:11:48.698Z,1016.44
2022-12-27T07:12:48.719Z,1016.40
2022-12-27T07:13:48.699Z,1016.39
2022-12-27T07:14:48.695Z,1016.38
2022-12-27T07:15:48.681Z,1016.42
2022-12-27T07:16:48.707Z,1016.40
2022-12-27T07:17:48.640Z,1016.42
2022-12-27T07:18:50.072Z,1016.39
2022-12-27T07:19:48.618Z,1016.36
2022-12-27T07:20:48.639Z,1016.37
2022-12-27T07:21:48.596Z,1016.41
2022-12-27T07:22:48.611Z,1016.44
2022-12-27T07:23:48.577Z,1016.44
2022-12-27T07:24:48.594Z,1016.42
2022-12-27T07:25:48.575Z,1016.43
2022-12-27T07:26:48.564Z,1016.53
2022-12-27T07:27:48.571Z,1016.47
2022-12-27T07:28:48.554Z,1016.44
2022-12-27T07:29:48.523Z,1016.48
2022-12-27T07:30:48.541Z,1016.53
2022-12-27T07:31:48.541Z,1016.55
2022-12-27T07:32:48.504Z,1016.55
2022-12-27T07:33:48.494Z,1016.59
2022-12-27T07:34:48.478Z,1016.66
2022-12-27T07:35:48.451Z,1016.69
2022-12-27T07:36:48.501Z,1016.65
2022-12-27T07:37:48.456Z,1016.72
2022-12-27T07:38:48.455Z,1016.88
2022-12-27T07:39:48.411Z,1016.74
2022-12-27T07:40:48.441Z,1016.75
2022-12-27T07:41:48.407Z,1016.77
2022-12-27T07:42:48.405Z,1016.80
2022-12-27T07:43:48.365Z,1016.84
2022-12-27T07:44:48.381Z,1016.85
2022-12-27T07:45:48.384Z,1016.82
2022-12-27T07:46:48.369Z,1016.84
2022-12-27T07:47:48.326Z,1016.85
2022-12-27T07:48:48.337Z,1016.85
2022-12-27T07:49:48.304Z,1016.86
2022-12-27T07:50:48.318Z,1016.86
2022-12-27T07:51:48.300Z,1016.90
2022-12-27T07:52:48.296Z,1016.91
2022-12-27T07:53:48.254Z,1016.93
2022-12-27T07:54:48.288Z,1016.92
2022-12-27T07:55:48.244Z,1016.96
2022-12-27T07:56:48.268Z,1016.95
2022-12-27T07:57:48.223Z,1016.98
2022-12-27T07:58:48.234Z,1016.99
2022-12-27T07:59:48.202Z,1016.97
2022-12-27T08:00:48.218Z,1016.97
2022-12-27T08:01:48.296Z,1017.00
2022-12-27T08:02:48.192Z,1016.98
2022-12-27T08:03:48.163Z,1017.01
2022-12-27T08:04:48.172Z,1017.06
2022-12-27T08:05:48.132Z,1017.03
2022-12-27T08:06:48.145Z,1017.07
2022-12-27T08:07:48.130Z,1017.06
2022-12-27T08:08:48.141Z,1017.08
2022-12-27T08:09:48.104Z,1017.05
2022-12-27T08:10:48.108Z,1017.10
2022-12-27T08:11:48.069Z,1017.06
2022-12-27T08:12:48.109Z,1017.06
2022-12-27T08:13:48.052Z,1017.05
2022-12-27T08:14:48.063Z,1017.11
2022-12-27T08:15:48.034Z,1017.11
2022-12-27T08:16:48.081Z,1017.21
2022-12-27T08:17:48.062Z,1017.16
2022-12-27T08:18:48.023Z,1017.17
2022-12-27T08:19:47.997Z,1017.13
2022-12-27T08:20:47.998Z,1017.12
2022-12-27T08:21:47.974Z,1017.14
2022-12-27T08:22:47.994Z,1017.16
2022-12-27T08:23:47.957Z,1017.15
2022-12-27T08:24:47.991Z,1017.15
2022-12-27T08:25:49.003Z,1017.26
2022-12-27T08:26:47.946Z,1017.24
2022-12-27T08:27:47.927Z,1017.12
2022-12-27T08:28:47.916Z,1017.18
2022-12-27T08:29:47.895Z,1017.16
2022-12-27T08:30:47.947Z,1017.19
2022-12-27T08:31:47.863Z,1017.17
2022-12-27T08:32:47.880Z,1017.16
2022-12-27T08:33:47.854Z,1017.17
2022-12-27T08:34:47.857Z,1017.14
2022-12-27T08:35:53.241Z,1017.18
2022-12-27T08:36:56.136Z,1017.15
2022-12-27T08:37:47.808Z,1017.16
2022-12-27T08:38:47.839Z,1017.18
2022-12-27T08:39:47.784Z,1017.17
2022-12-27T08:40:47.804Z,1017.20
2022-12-27T08:41:47.767Z,1017.19
2022-12-27T08:42:47.771Z,1017.24
2022-12-27T08:43:47.743Z,1017.21
2022-12-27T08:44:47.760Z,1017.20
2022-12-27T08:45:47.795Z,1017.25
2022-12-27T08:46:47.737Z,1017.22
2022-12-27T08:47:47.694Z,1017.28
2022-12-27T08:48:47.707Z,1017.26
2022-12-27T08:49:47.701Z,1017.28
2022-12-27T08:50:47.690Z,1017.25
2022-12-27T08:51:47.668Z,1017.30
2022-12-27T08:52:47.671Z,1017.27
2022-12-27T08:53:47.632Z,1017.23
2022-12-27T08:54:47.660Z,1017.26
2022-12-27T08:55:47.610Z,1017.34
2022-12-27T08:56:47.622Z,1017.29
2022-12-27T08:57:47.605Z,1017.27
2022-12-27T08:58:47.604Z,1017.26
2022-12-27T08:59:47.576Z,1017.29
2022-12-27T09:00:47.614Z,1017.31
2022-12-27T09:01:47.651Z,1017.27
2022-12-27T09:02:47.573Z,1017.25
2022-12-27T09:03:47.530Z,1017.28
2022-12-27T09:04:47.548Z,1017.28
2022-12-27T09:05:47.551Z,1017.29
2022-12-27T09:06:47.527Z,1017.26
2022-12-27T09:07:47.497Z,1017.28
2022-12-27T09:08:47.509Z,1017.33
2022-12-27T09:09:47.486Z,1017.32
2022-12-27T09:10:47.502Z,1017.38
2022-12-27T09:11:47.441Z,1017.33
2022-12-27T09:12:47.458Z,1017.39
2022-12-27T09:13:47.424Z,1017.34
2022-12-27T09:14:47.447Z,1017.40
2022-12-27T09:15:47.430Z,1017.45
2022-12-27T09:16:47.443Z,1017.45
2022-12-27T09:17:47.386Z,1017.45
2022-12-27T09:18:47.393Z,1017.49
2022-12-27T09:19:47.367Z,1017.48
2022-12-27T09:20:47.375Z,1017.48
2022-12-27T09:21:47.352Z,1017.55
2022-12-27T09:22:47.354Z,1017.44
2022-12-27T09:23:47.325Z,1017.46
2022-12-27T09:24:47.332Z,1017.51
2022-12-27T09:25:47.365Z,1017.52
2022-12-27T09:26:47.336Z,1017.48
2022-12-27T09:27:47.280Z,1017.47
2022-12-27T09:28:47.288Z,1017.45
2022-12-27T09:29:48.535Z,1017.47
2022-12-27T09:30:47.340Z,1017.47
2022-12-27T09:31:47.260Z,1017.49
2022-12-27T09:32:47.249Z,1017.49
2022-12-27T09:33:47.222Z,1017.45
2022-12-27T09:34:47.223Z,1017.63
2022-12-27T09:35:47.199Z,1017.56
2022-12-27T09:36:47.241Z,1017.56
2022-12-27T09:37:47.191Z,1017.55
2022-12-27T09:38:47.203Z,1017.58
2022-12-27T09:39:47.151Z,1017.50
2022-12-27T09:40:47.161Z,1017.56
2022-12-27T09:42:58.994Z,1017.72
2022-12-27T09:43:47.129Z,1017.53
2022-12-27T09:44:47.125Z,1017.50
2022-12-27T09:45:47.091Z,1017.51
2022-12-27T09:46:47.155Z,1017.52
2022-12-27T09:47:47.093Z,1017.53
2022-12-27T09:48:47.085Z,1017.55
2022-12-27T09:49:47.064Z,1017.53
2022-12-27T09:50:47.059Z,1017.55
2022-12-27T09:51:47.044Z,1017.58
2022-12-27T09:52:47.036Z,1017.61
2022-12-27T09:53:47.056Z,1017.61
2022-12-27T09:54:47.020Z,1017.69
2022-12-27T09:55:46.986Z,1017.63
2022-12-27T09:57:18.295Z,1017.60
2022-12-27T09:57:46.993Z,1017.59
2022-12-27T09:58:47.032Z,1017.60
2022-12-27T09:59:46.959Z,1017.51
2022-12-27T10:00:46.959Z,1017.56
2022-12-27T10:01:47.035Z,1017.57
2022-12-27T10:02:46.966Z,1017.56
2022-12-27T10:03:46.899Z,1017.59
2022-12-27T10:05:18.665Z,1017.60
2022-12-27T10:05:48.973Z,1017.61
2022-12-27T10:06:46.898Z,1017.59
2022-12-27T10:07:46.867Z,1017.59
2022-12-27T10:08:46.878Z,1017.61
2022-12-27T10:09:46.862Z,1017.60
2022-12-27T10:10:46.859Z,1017.62
2022-12-27T10:11:46.830Z,1017.65
2022-12-27T10:12:46.827Z,1017.62
2022-12-27T10:13:46.793Z,1017.68
2022-12-27T10:14:46.836Z,1017.62
2022-12-27T10:15:46.860Z,1017.61
2022-12-27T10:16:46.780Z,1017.51
2022-12-27T10:17:51.133Z,1017.54
2022-12-27T10:18:46.767Z,1017.56
2022-12-27T10:19:46.731Z,1017.55
2022-12-27T10:20:46.764Z,1017.52
2022-12-27T10:21:46.720Z,1017.55
2022-12-27T10:22:46.725Z,1017.52
2022-12-27T10:23:46.688Z,1017.53
2022-12-27T10:24:46.731Z,1017.52
2022-12-27T10:25:46.702Z,1017.53
2022-12-27T10:26:46.738Z,1017.55
2022-12-27T10:27:46.649Z,1017.55
2022-12-27T10:28:46.662Z,1017.58
2022-12-27T10:29:46.628Z,1017.58
2022-12-27T10:30:46.638Z,1017.55
2022-12-27T10:31:46.640Z,1017.55
2022-12-27T10:32:46.610Z,1017.54
2022-12-27T10:33:46.621Z,1017.59
2022-12-27T10:34:46.580Z,1017.61
2022-12-27T10:35:46.591Z,1017.57
2022-12-27T10:36:46.571Z,1017.59
2022-12-27T10:37:46.569Z,1017.63
2022-12-27T10:38:46.551Z,1017.58
2022-12-27T10:39:46.563Z,1017.68
2022-12-27T10:40:46.522Z,1017.66
2022-12-27T10:41:46.546Z,1017.66
2022-12-27T10:42:46.495Z,1017.67
2022-12-27T10:43:46.513Z,1017.69
2022-12-27T10:44:46.469Z,1017.65
2022-12-27T10:45:46.488Z,1017.63
2022-12-27T10:46:46.486Z,1017.65
2022-12-27T10:47:46.479Z,1017.65
2022-12-27T10:49:19.622Z,1017.64
2022-12-27T10:49:46.452Z,1017.66
2022-12-27T10:50:46.430Z,1017.71
2022-12-27T10:51:46.442Z,1017.71
2022-12-27T10:52:46.426Z,1017.76
2022-12-27T10:53:46.403Z,1017.73
2022-12-27T10:54:46.402Z,1017.69
2022-12-27T10:55:46.373Z,1017.67
2022-12-27T10:56:46.349Z,1017.68
2022-12-27T10:57:46.388Z,1017.73
2022-12-27T10:58:46.321Z,1017.72
2022-12-27T10:59:46.327Z,1017.72
2022-12-27T11:00:46.322Z,1017.74
2022-12-27T11:01:46.399Z,1017.73
2022-12-27T11:02:46.522Z,1017.70
2022-12-27T11:03:46.287Z,1017.72
2022-12-27T11:04:46.277Z,1017.78
2022-12-27T11:05:46.271Z,1017.71
2022-12-27T11:06:46.252Z,1017.72
2022-12-27T11:07:46.245Z,1017.66
2022-12-27T11:08:46.223Z,1017.66
2022-12-27T11:09:51.011Z,1017.60
2022-12-27T11:10:46.204Z,1017.62
2022-12-27T11:11:46.200Z,1017.64
2022-12-27T11:12:46.175Z,1017.68
2022-12-27T11:13:46.193Z,1017.68
2022-12-27T11:14:46.150Z,1017.71
2022-12-27T11:15:46.222Z,1017.72
2022-12-27T11:16:46.202Z,1017.71
2022-12-27T11:17:46.138Z,1017.69
2022-12-27T11:18:46.120Z,1017.73
2022-12-27T11:19:46.124Z,1017.70
2022-12-27T11:20:46.090Z,1017.70
2022-12-27T11:21:46.092Z,1017.72
2022-12-27T11:22:46.067Z,1017.69
2022-12-27T11:23:46.093Z,1017.71
2022-12-27T11:24:46.050Z,1017.69
2022-12-27T11:25:46.067Z,1017.69
2022-12-27T11:26:50.273Z,1017.68
2022-12-27T11:27:46.045Z,1017.67
2022-12-27T11:28:46.054Z,1017.69
2022-12-27T11:29:46.008Z,1017.69
2022-12-27T11:30:45.985Z,1017.70
2022-12-27T11:31:46.099Z,1017.72
2022-12-27T11:32:45.968Z,1017.76
2022-12-27T11:33:45.976Z,1017.76
2022-12-27T11:34:45.951Z,1017.77
2022-12-27T11:35:45.995Z,1017.81
2022-12-27T11:36:45.921Z,1017.73
2022-12-27T11:37:45.928Z,1017.82
2022-12-27T11:38:45.912Z,1017.83
2022-12-27T11:39:45.930Z,1017.82
2022-12-27T11:40:45.878Z,1017.84
2022-12-27T11:41:45.884Z,1017.78
2022-12-27T11:42:45.872Z,1017.79
2022-12-27T11:43:45.860Z,1017.76
2022-12-27T11:44:45.857Z,1017.79
2022-12-27T11:45:45.847Z,1017.77
2022-12-27T11:46:45.833Z,1017.74
2022-12-27T11:47:45.828Z,1017.74
2022-12-27T11:48:45.792Z,1017.78
2022-12-27T11:49:45.811Z,1017.72
2022-12-27T11:50:45.782Z,1017.71
2022-12-27T11:51:45.774Z,1017.69
2022-12-27T11:52:45.754Z,1017.75
2022-12-27T11:53:48.691Z,1017.71
2022-12-27T11:54:45.732Z,1017.72
2022-12-27T11:55:45.770Z,1017.70
2022-12-27T11:56:45.705Z,1017.73
2022-12-27T11:57:45.727Z,1017.76
2022-12-27T11:58:45.688Z,1017.76
2022-12-27T11:59:45.690Z,1017.75
2022-12-27T12:00:45.677Z,1017.79
2022-12-27T12:01:45.805Z,1017.75
2022-12-27T12:02:45.897Z,1017.76
2022-12-27T12:03:45.673Z,1017.73
2022-12-27T12:04:45.622Z,1017.75
2022-12-27T12:05:45.647Z,1017.71
2022-12-27T12:06:45.604Z,1017.74